sensor_id;sensor_type;location;lat;lon;timestamp;P1;durP1;ratioP1;P2;durP2;ratioP2
1400;SDS011;46518;48.842;8.926;2023-04-02T00:00:13;1.02;;;0.95;;
1400;SDS011;46518;48.842;8.926;2023-04-02T00:02:47;0.93;;;0.90;;
1400;SDS011;46518;48.842;8.926;2023-04-02T00:08:23;2.35;;;1.65;;
1400;SDS011;46518;48.842;8.926;2023-04-02T00:10:54;1.75;;;0.70;;
1400;SDS011;46518;48.842;8.926;2023-04-02T00:13:30;1.42;;;0.90;;
1400;SDS011;46518;48.842;8.926;2023-04-02T00:16:02;1.00;;;0.60;;
1400;SDS011;46518;48.842;8.926;2023-04-02T00:18:32;1.40;;;0.90;;
1400;SDS011;46518;48.842;8.926;2023-04-02T00:21:08;0.88;;;0.85;;
1400;SDS011;46518;48.842;8.926;2023-04-02T00:23:40;1.35;;;0.90;;
1400;SDS011;46518;48.842;8.926;2023-04-02T00:26:20;1.45;;;1.30;;
1400;SDS011;46518;48.842;8.926;2023-04-02T00:28:51;0.88;;;0.75;;
1400;SDS011;46518;48.842;8.926;2023-04-02T00:31:19;1.42;;;0.77;;
1400;SDS011;46518;48.842;8.926;2023-04-02T00:33:49;1.40;;;0.90;;
1400;SDS011;46518;48.842;8.926;2023-04-02T00:36:17;1.45;;;1.15;;
1400;SDS011;46518;48.842;8.926;2023-04-02T00:38:48;3.83;;;1.23;;
1400;SDS011;46518;48.842;8.926;2023-04-02T00:41:18;1.00;;;0.85;;
1400;SDS011;46518;48.842;8.926;2023-04-02T00:43:54;1.02;;;0.70;;
1400;SDS011;46518;48.842;8.926;2023-04-02T00:46:26;8.73;;;1.58;;
1400;SDS011;46518;48.842;8.926;2023-04-02T00:49:02;1.05;;;0.80;;
1400;SDS011;46518;48.842;8.926;2023-04-02T00:51:36;1.45;;;0.70;;
1400;SDS011;46518;48.842;8.926;2023-04-02T00:54:09;1.00;;;0.73;;
1400;SDS011;46518;48.842;8.926;2023-04-02T00:56:42;0.93;;;0.70;;
1400;SDS011;46518;48.842;8.926;2023-04-02T00:59:18;1.42;;;0.68;;
1400;SDS011;46518;48.842;8.926;2023-04-02T01:01:52;0.60;;;0.60;;
1400;SDS011;46518;48.842;8.926;2023-04-02T01:04:30;1.15;;;1.05;;
1400;SDS011;46518;48.842;8.926;2023-04-02T01:07:01;3.30;;;0.82;;
1400;SDS011;46518;48.842;8.926;2023-04-02T01:09:37;1.13;;;0.95;;
1400;SDS011;46518;48.842;8.926;2023-04-02T01:15:14;1.60;;;0.82;;
1400;SDS011;46518;48.842;8.926;2023-04-02T01:17:53;0.80;;;0.80;;
1400;SDS011;46518;48.842;8.926;2023-04-02T01:20:38;1.45;;;0.70;;
1400;SDS011;46518;48.842;8.926;2023-04-02T01:23:19;1.55;;;0.90;;
1400;SDS011;46518;48.842;8.926;2023-04-02T01:25:52;1.05;;;0.70;;
1400;SDS011;46518;48.842;8.926;2023-04-02T01:28:30;1.00;;;0.88;;
1400;SDS011;46518;48.842;8.926;2023-04-02T01:31:06;1.45;;;0.90;;
1400;SDS011;46518;48.842;8.926;2023-04-02T01:33:37;1.08;;;0.90;;
1400;SDS011;46518;48.842;8.926;2023-04-02T01:36:10;1.10;;;0.80;;
1400;SDS011;46518;48.842;8.926;2023-04-02T01:38:44;0.82;;;0.82;;
1400;SDS011;46518;48.842;8.926;2023-04-02T01:41:22;3.58;;;1.35;;
1400;SDS011;46518;48.842;8.926;2023-04-02T01:43:59;3.63;;;0.93;;
1400;SDS011;46518;48.842;8.926;2023-04-02T01:46:37;1.33;;;1.10;;
1400;SDS011;46518;48.842;8.926;2023-04-02T01:49:10;0.95;;;0.85;;
1400;SDS011;46518;48.842;8.926;2023-04-02T01:51:42;2.08;;;0.70;;
1400;SDS011;46518;48.842;8.926;2023-04-02T01:54:15;0.80;;;0.70;;
1400;SDS011;46518;48.842;8.926;2023-04-02T01:56:45;2.28;;;0.90;;
1400;SDS011;46518;48.842;8.926;2023-04-02T01:59:15;3.40;;;0.98;;
1400;SDS011;46518;48.842;8.926;2023-04-02T02:01:56;2.90;;;0.80;;
1400;SDS011;46518;48.842;8.926;2023-04-02T02:04:30;0.93;;;0.82;;
1400;SDS011;46518;48.842;8.926;2023-04-02T02:06:59;0.70;;;0.68;;
1400;SDS011;46518;48.842;8.926;2023-04-02T02:09:31;1.17;;;0.60;;
1400;SDS011;46518;48.842;8.926;2023-04-02T02:12:02;0.88;;;0.70;;
1400;SDS011;46518;48.842;8.926;2023-04-02T02:14:32;1.08;;;0.80;;
1400;SDS011;46518;48.842;8.926;2023-04-02T02:17:02;1.48;;;0.90;;
1400;SDS011;46518;48.842;8.926;2023-04-02T02:19:42;0.70;;;0.70;;
1400;SDS011;46518;48.842;8.926;2023-04-02T02:22:25;0.75;;;0.75;;
1400;SDS011;46518;48.842;8.926;2023-04-02T02:24:56;0.60;;;0.60;;
1400;SDS011;46518;48.842;8.926;2023-04-02T02:30:22;1.63;;;0.70;;
1400;SDS011;46518;48.842;8.926;2023-04-02T02:32:57;0.73;;;0.73;;
1400;SDS011;46518;48.842;8.926;2023-04-02T02:35:31;0.90;;;0.80;;
1400;SDS011;46518;48.842;8.926;2023-04-02T02:38:14;1.10;;;1.00;;
1400;SDS011;46518;48.842;8.926;2023-04-02T02:40:59;0.80;;;0.80;;
1400;SDS011;46518;48.842;8.926;2023-04-02T02:43:31;1.08;;;0.75;;
1400;SDS011;46518;48.842;8.926;2023-04-02T02:46:02;1.35;;;0.68;;
1400;SDS011;46518;48.842;8.926;2023-04-02T02:48:36;0.60;;;0.50;;
1400;SDS011;46518;48.842;8.926;2023-04-02T02:51:07;1.13;;;0.70;;
1400;SDS011;46518;48.842;8.926;2023-04-02T02:53:45;0.70;;;0.70;;
1400;SDS011;46518;48.842;8.926;2023-04-02T02:56:18;0.68;;;0.68;;
1400;SDS011;46518;48.842;8.926;2023-04-02T02:58:50;0.77;;;0.77;;
1400;SDS011;46518;48.842;8.926;2023-04-02T03:01:26;1.30;;;0.63;;
1400;SDS011;46518;48.842;8.926;2023-04-02T03:03:59;2.30;;;0.70;;
1400;SDS011;46518;48.842;8.926;2023-04-02T03:06:29;1.45;;;0.90;;
1400;SDS011;46518;48.842;8.926;2023-04-02T03:09:01;0.93;;;0.77;;
1400;SDS011;46518;48.842;8.926;2023-04-02T03:11:39;0.70;;;0.60;;
1400;SDS011;46518;48.842;8.926;2023-04-02T03:14:20;0.80;;;0.70;;
1400;SDS011;46518;48.842;8.926;2023-04-02T03:16:56;0.70;;;0.60;;
1400;SDS011;46518;48.842;8.926;2023-04-02T03:19:33;1.35;;;0.70;;
1400;SDS011;46518;48.842;8.926;2023-04-02T03:22:07;0.85;;;0.60;;
1400;SDS011;46518;48.842;8.926;2023-04-02T03:24:45;1.73;;;0.70;;
1400;SDS011;46518;48.842;8.926;2023-04-02T03:27:20;0.70;;;0.70;;
1400;SDS011;46518;48.842;8.926;2023-04-02T03:29:57;0.98;;;0.90;;
1400;SDS011;46518;48.842;8.926;2023-04-02T03:32:35;2.63;;;0.68;;
1400;SDS011;46518;48.842;8.926;2023-04-02T03:35:09;0.73;;;0.70;;
1400;SDS011;46518;48.842;8.926;2023-04-02T03:37:50;1.50;;;0.60;;
1400;SDS011;46518;48.842;8.926;2023-04-02T03:40:27;0.70;;;0.70;;
1400;SDS011;46518;48.842;8.926;2023-04-02T03:42:59;0.65;;;0.60;;
1400;SDS011;46518;48.842;8.926;2023-04-02T03:45:34;0.80;;;0.70;;
1400;SDS011;46518;48.842;8.926;2023-04-02T03:48:09;2.85;;;0.90;;
1400;SDS011;46518;48.842;8.926;2023-04-02T03:50:43;1.75;;;1.00;;
1400;SDS011;46518;48.842;8.926;2023-04-02T03:53:21;1.13;;;0.90;;
1400;SDS011;46518;48.842;8.926;2023-04-02T03:55:52;1.50;;;0.60;;
1400;SDS011;46518;48.842;8.926;2023-04-02T03:58:23;0.70;;;0.63;;
1400;SDS011;46518;48.842;8.926;2023-04-02T04:00:56;1.35;;;0.80;;
1400;SDS011;46518;48.842;8.926;2023-04-02T04:03:31;1.15;;;0.80;;
1400;SDS011;46518;48.842;8.926;2023-04-02T04:06:09;1.33;;;0.70;;
1400;SDS011;46518;48.842;8.926;2023-04-02T04:08:45;0.73;;;0.60;;
1400;SDS011;46518;48.842;8.926;2023-04-02T04:11:21;1.38;;;0.60;;
1400;SDS011;46518;48.842;8.926;2023-04-02T04:13:55;0.90;;;0.65;;
1400;SDS011;46518;48.842;8.926;2023-04-02T04:16:28;0.50;;;0.50;;
1400;SDS011;46518;48.842;8.926;2023-04-02T04:19:00;0.85;;;0.85;;
1400;SDS011;46518;48.842;8.926;2023-04-02T04:21:35;0.80;;;0.75;;
1400;SDS011;46518;48.842;8.926;2023-04-02T04:24:16;1.95;;;0.82;;
1400;SDS011;46518;48.842;8.926;2023-04-02T04:26:51;1.02;;;0.70;;
1400;SDS011;46518;48.842;8.926;2023-04-02T04:29:30;0.80;;;0.68;;
1400;SDS011;46518;48.842;8.926;2023-04-02T04:32:15;1.35;;;0.70;;
1400;SDS011;46518;48.842;8.926;2023-04-02T04:35:05;0.68;;;0.68;;
1400;SDS011;46518;48.842;8.926;2023-04-02T04:37:45;0.70;;;0.60;;
1400;SDS011;46518;48.842;8.926;2023-04-02T04:40:25;1.95;;;0.82;;
1400;SDS011;46518;48.842;8.926;2023-04-02T04:42:58;0.70;;;0.60;;
1400;SDS011;46518;48.842;8.926;2023-04-02T04:45:34;0.70;;;0.52;;
1400;SDS011;46518;48.842;8.926;2023-04-02T04:48:09;1.00;;;0.70;;
1400;SDS011;46518;48.842;8.926;2023-04-02T04:50:45;0.60;;;0.55;;
1400;SDS011;46518;48.842;8.926;2023-04-02T04:53:19;1.00;;;0.60;;
1400;SDS011;46518;48.842;8.926;2023-04-02T04:55:52;4.50;;;0.60;;
1400;SDS011;46518;48.842;8.926;2023-04-02T04:58:44;0.75;;;0.70;;
1400;SDS011;46518;48.842;8.926;2023-04-02T05:01:17;0.85;;;0.85;;
1400;SDS011;46518;48.842;8.926;2023-04-02T05:03:53;2.38;;;0.70;;
1400;SDS011;46518;48.842;8.926;2023-04-02T05:06:34;1.13;;;1.02;;
1400;SDS011;46518;48.842;8.926;2023-04-02T05:09:11;0.80;;;0.73;;
1400;SDS011;46518;48.842;8.926;2023-04-02T05:11:46;0.90;;;0.75;;
1400;SDS011;46518;48.842;8.926;2023-04-02T05:14:21;0.75;;;0.70;;
1400;SDS011;46518;48.842;8.926;2023-04-02T05:16:57;1.35;;;0.60;;
1400;SDS011;46518;48.842;8.926;2023-04-02T05:19:33;1.10;;;0.75;;
1400;SDS011;46518;48.842;8.926;2023-04-02T05:22:12;1.17;;;0.80;;
1400;SDS011;46518;48.842;8.926;2023-04-02T05:24:55;0.90;;;0.68;;
1400;SDS011;46518;48.842;8.926;2023-04-02T05:27:33;0.90;;;0.70;;
1400;SDS011;46518;48.842;8.926;2023-04-02T05:30:10;3.05;;;0.70;;
1400;SDS011;46518;48.842;8.926;2023-04-02T05:32:48;1.25;;;0.80;;
1400;SDS011;46518;48.842;8.926;2023-04-02T05:35:31;1.25;;;0.70;;
1400;SDS011;46518;48.842;8.926;2023-04-02T05:38:03;0.73;;;0.73;;
1400;SDS011;46518;48.842;8.926;2023-04-02T05:40:35;0.70;;;0.70;;
1400;SDS011;46518;48.842;8.926;2023-04-02T05:43:09;0.70;;;0.70;;
1400;SDS011;46518;48.842;8.926;2023-04-02T05:45:44;0.68;;;0.68;;
1400;SDS011;46518;48.842;8.926;2023-04-02T05:48:21;0.75;;;0.75;;
1400;SDS011;46518;48.842;8.926;2023-04-02T05:50:56;1.77;;;0.90;;
1400;SDS011;46518;48.842;8.926;2023-04-02T05:53:30;1.00;;;0.90;;
1400;SDS011;46518;48.842;8.926;2023-04-02T05:56:04;2.70;;;0.90;;
1400;SDS011;46518;48.842;8.926;2023-04-02T05:58:39;0.75;;;0.60;;
1400;SDS011;46518;48.842;8.926;2023-04-02T06:01:24;0.80;;;0.70;;
1400;SDS011;46518;48.842;8.926;2023-04-02T06:04:07;0.70;;;0.70;;
1400;SDS011;46518;48.842;8.926;2023-04-02T06:06:45;0.82;;;0.70;;
1400;SDS011;46518;48.842;8.926;2023-04-02T06:09:20;1.00;;;0.60;;
1400;SDS011;46518;48.842;8.926;2023-04-02T06:11:58;1.13;;;0.80;;
1400;SDS011;46518;48.842;8.926;2023-04-02T06:14:35;1.48;;;1.20;;
1400;SDS011;46518;48.842;8.926;2023-04-02T06:17:04;1.45;;;1.25;;
1400;SDS011;46518;48.842;8.926;2023-04-02T06:19:35;1.20;;;1.10;;
1400;SDS011;46518;48.842;8.926;2023-04-02T06:22:09;1.45;;;1.08;;
1400;SDS011;46518;48.842;8.926;2023-04-02T06:24:49;1.42;;;1.33;;
1400;SDS011;46518;48.842;8.926;2023-04-02T06:27:25;1.00;;;0.85;;
1400;SDS011;46518;48.842;8.926;2023-04-02T06:29:56;1.52;;;1.25;;
1400;SDS011;46518;48.842;8.926;2023-04-02T06:32:30;2.00;;;1.80;;
1400;SDS011;46518;48.842;8.926;2023-04-02T06:34:59;1.10;;;0.82;;
1400;SDS011;46518;48.842;8.926;2023-04-02T06:37:31;1.05;;;0.95;;
1400;SDS011;46518;48.842;8.926;2023-04-02T06:40:21;1.65;;;0.90;;
1400;SDS011;46518;48.842;8.926;2023-04-02T06:43:07;1.05;;;0.80;;
1400;SDS011;46518;48.842;8.926;2023-04-02T06:46:04;0.60;;;0.50;;
1400;SDS011;46518;48.842;8.926;2023-04-02T06:48:58;1.83;;;0.75;;
1400;SDS011;46518;48.842;8.926;2023-04-02T06:51:31;0.80;;;0.65;;
1400;SDS011;46518;48.842;8.926;2023-04-02T06:54:03;1.67;;;0.90;;
1400;SDS011;46518;48.842;8.926;2023-04-02T06:56:36;0.98;;;0.77;;
1400;SDS011;46518;48.842;8.926;2023-04-02T06:59:13;1.25;;;0.85;;
1400;SDS011;46518;48.842;8.926;2023-04-02T07:01:44;0.80;;;0.80;;
1400;SDS011;46518;48.842;8.926;2023-04-02T07:04:15;1.88;;;0.65;;
1400;SDS011;46518;48.842;8.926;2023-04-02T07:06:48;0.60;;;0.60;;
1400;SDS011;46518;48.842;8.926;2023-04-02T07:09:17;0.70;;;0.70;;
1400;SDS011;46518;48.842;8.926;2023-04-02T07:11:49;0.70;;;0.60;;
1400;SDS011;46518;48.842;8.926;2023-04-02T07:14:20;0.70;;;0.60;;
1400;SDS011;46518;48.842;8.926;2023-04-02T07:16:49;1.33;;;0.60;;
1400;SDS011;46518;48.842;8.926;2023-04-02T07:19:20;0.68;;;0.60;;
1400;SDS011;46518;48.842;8.926;2023-04-02T07:21:55;0.90;;;0.60;;
1400;SDS011;46518;48.842;8.926;2023-04-02T07:24:26;0.80;;;0.80;;
1400;SDS011;46518;48.842;8.926;2023-04-02T07:26:54;0.60;;;0.60;;
1400;SDS011;46518;48.842;8.926;2023-04-02T07:29:24;1.55;;;0.77;;
1400;SDS011;46518;48.842;8.926;2023-04-02T07:31:52;0.95;;;0.60;;
1400;SDS011;46518;48.842;8.926;2023-04-02T07:34:21;0.60;;;0.60;;
1400;SDS011;46518;48.842;8.926;2023-04-02T07:36:49;1.15;;;0.60;;
1400;SDS011;46518;48.842;8.926;2023-04-02T07:39:17;0.63;;;0.63;;
1400;SDS011;46518;48.842;8.926;2023-04-02T07:41:49;1.55;;;0.75;;
1400;SDS011;46518;48.842;8.926;2023-04-02T07:44:18;0.80;;;0.80;;
1400;SDS011;46518;48.842;8.926;2023-04-02T07:46:49;1.40;;;0.70;;
1400;SDS011;46518;48.842;8.926;2023-04-02T07:49:18;3.13;;;1.27;;
1400;SDS011;46518;48.842;8.926;2023-04-02T07:51:48;1.10;;;0.80;;
1400;SDS011;46518;48.842;8.926;2023-04-02T07:54:16;2.05;;;1.15;;
1400;SDS011;46518;48.842;8.926;2023-04-02T07:56:45;2.90;;;0.80;;
1400;SDS011;46518;48.842;8.926;2023-04-02T07:59:13;0.90;;;0.90;;
1400;SDS011;46518;48.842;8.926;2023-04-02T08:01:42;0.90;;;0.90;;
1400;SDS011;46518;48.842;8.926;2023-04-02T08:04:16;1.15;;;0.77;;
1400;SDS011;46518;48.842;8.926;2023-04-02T08:06:46;1.77;;;1.02;;
1400;SDS011;46518;48.842;8.926;2023-04-02T08:09:16;1.08;;;0.98;;
1400;SDS011;46518;48.842;8.926;2023-04-02T08:11:44;1.08;;;0.90;;
1400;SDS011;46518;48.842;8.926;2023-04-02T08:14:13;0.70;;;0.70;;
1400;SDS011;46518;48.842;8.926;2023-04-02T08:16:42;1.00;;;0.77;;
1400;SDS011;46518;48.842;8.926;2023-04-02T08:19:12;1.00;;;0.70;;
1400;SDS011;46518;48.842;8.926;2023-04-02T08:21:42;0.70;;;0.60;;
1400;SDS011;46518;48.842;8.926;2023-04-02T08:24:10;0.70;;;0.65;;
1400;SDS011;46518;48.842;8.926;2023-04-02T08:26:38;0.70;;;0.65;;
1400;SDS011;46518;48.842;8.926;2023-04-02T08:29:08;0.60;;;0.60;;
1400;SDS011;46518;48.842;8.926;2023-04-02T08:31:37;0.70;;;0.60;;
1400;SDS011;46518;48.842;8.926;2023-04-02T08:34:05;0.68;;;0.68;;
1400;SDS011;46518;48.842;8.926;2023-04-02T08:36:33;0.75;;;0.60;;
1400;SDS011;46518;48.842;8.926;2023-04-02T08:39:06;0.80;;;0.60;;
1400;SDS011;46518;48.842;8.926;2023-04-02T08:41:39;3.83;;;0.60;;
1400;SDS011;46518;48.842;8.926;2023-04-02T08:44:18;0.70;;;0.57;;
1400;SDS011;46518;48.842;8.926;2023-04-02T08:46:58;0.70;;;0.65;;
1400;SDS011;46518;48.842;8.926;2023-04-02T08:49:30;0.65;;;0.60;;
1400;SDS011;46518;48.842;8.926;2023-04-02T08:52:02;0.60;;;0.60;;
1400;SDS011;46518;48.842;8.926;2023-04-02T08:54:32;0.80;;;0.80;;
1400;SDS011;46518;48.842;8.926;2023-04-02T08:57:05;0.60;;;0.50;;
1400;SDS011;46518;48.842;8.926;2023-04-02T08:59:42;0.70;;;0.60;;
1400;SDS011;46518;48.842;8.926;2023-04-02T09:02:24;0.80;;;0.60;;
1400;SDS011;46518;48.842;8.926;2023-04-02T09:04:59;0.65;;;0.60;;
1400;SDS011;46518;48.842;8.926;2023-04-02T09:07:31;1.45;;;1.35;;
1400;SDS011;46518;48.842;8.926;2023-04-02T09:10:02;2.03;;;1.25;;
1400;SDS011;46518;48.842;8.926;2023-04-02T09:12:31;1.20;;;1.10;;
1400;SDS011;46518;48.842;8.926;2023-04-02T09:15:05;3.47;;;1.75;;
1400;SDS011;46518;48.842;8.926;2023-04-02T09:17:44;1.10;;;0.90;;
1400;SDS011;46518;48.842;8.926;2023-04-02T09:20:21;0.80;;;0.80;;
1400;SDS011;46518;48.842;8.926;2023-04-02T09:22:52;0.70;;;0.60;;
1400;SDS011;46518;48.842;8.926;2023-04-02T09:25:24;0.70;;;0.60;;
1400;SDS011;46518;48.842;8.926;2023-04-02T09:27:54;0.70;;;0.50;;
1400;SDS011;46518;48.842;8.926;2023-04-02T09:30:31;0.60;;;0.60;;
1400;SDS011;46518;48.842;8.926;2023-04-02T09:33:10;0.60;;;0.50;;
1400;SDS011;46518;48.842;8.926;2023-04-02T09:35:52;0.60;;;0.50;;
1400;SDS011;46518;48.842;8.926;2023-04-02T09:38:22;0.60;;;0.50;;
1400;SDS011;46518;48.842;8.926;2023-04-02T09:40:57;0.60;;;0.50;;
1400;SDS011;46518;48.842;8.926;2023-04-02T09:43:27;1.10;;;0.70;;
1400;SDS011;46518;48.842;8.926;2023-04-02T09:45:58;0.80;;;0.70;;
1400;SDS011;46518;48.842;8.926;2023-04-02T09:48:28;0.70;;;0.70;;
1400;SDS011;46518;48.842;8.926;2023-04-02T09:51:10;1.25;;;0.70;;
1400;SDS011;46518;48.842;8.926;2023-04-02T09:53:41;0.85;;;0.70;;
1400;SDS011;46518;48.842;8.926;2023-04-02T09:56:15;0.60;;;0.60;;
1400;SDS011;46518;48.842;8.926;2023-04-02T09:58:45;1.13;;;0.75;;
1400;SDS011;46518;48.842;8.926;2023-04-02T10:01:30;0.80;;;0.80;;
1400;SDS011;46518;48.842;8.926;2023-04-02T10:04:04;0.77;;;0.77;;
1400;SDS011;46518;48.842;8.926;2023-04-02T10:06:33;0.77;;;0.70;;
1400;SDS011;46518;48.842;8.926;2023-04-02T10:09:17;0.80;;;0.70;;
1400;SDS011;46518;48.842;8.926;2023-04-02T10:11:49;1.10;;;0.95;;
1400;SDS011;46518;48.842;8.926;2023-04-02T10:14:20;0.60;;;0.50;;
1400;SDS011;46518;48.842;8.926;2023-04-02T10:16:52;0.70;;;0.60;;
1400;SDS011;46518;48.842;8.926;2023-04-02T10:19:25;1.08;;;0.60;;
1400;SDS011;46518;48.842;8.926;2023-04-02T10:21:59;1.70;;;0.70;;
1400;SDS011;46518;48.842;8.926;2023-04-02T10:24:29;0.90;;;0.70;;
1400;SDS011;46518;48.842;8.926;2023-04-02T10:27:01;0.80;;;0.80;;
1400;SDS011;46518;48.842;8.926;2023-04-02T10:29:46;1.27;;;0.80;;
1400;SDS011;46518;48.842;8.926;2023-04-02T10:32:29;1.08;;;0.98;;
1400;SDS011;46518;48.842;8.926;2023-04-02T10:35:03;0.77;;;0.68;;
1400;SDS011;46518;48.842;8.926;2023-04-02T10:37:57;0.80;;;0.80;;
1400;SDS011;46518;48.842;8.926;2023-04-02T10:40:38;0.63;;;0.60;;
1400;SDS011;46518;48.842;8.926;2023-04-02T10:43:33;0.80;;;0.80;;
1400;SDS011;46518;48.842;8.926;2023-04-02T10:46:12;0.70;;;0.70;;
1400;SDS011;46518;48.842;8.926;2023-04-02T10:48:53;0.70;;;0.50;;
1400;SDS011;46518;48.842;8.926;2023-04-02T10:51:32;0.80;;;0.63;;
1400;SDS011;46518;48.842;8.926;2023-04-02T10:54:11;1.13;;;0.70;;
1400;SDS011;46518;48.842;8.926;2023-04-02T10:56:56;0.80;;;0.65;;
1400;SDS011;46518;48.842;8.926;2023-04-02T10:59:29;0.60;;;0.50;;
1400;SDS011;46518;48.842;8.926;2023-04-02T11:02:02;1.00;;;0.77;;
1400;SDS011;46518;48.842;8.926;2023-04-02T11:04:42;0.93;;;0.60;;
1400;SDS011;46518;48.842;8.926;2023-04-02T11:07:13;0.70;;;0.70;;
1400;SDS011;46518;48.842;8.926;2023-04-02T11:09:47;0.85;;;0.60;;
1400;SDS011;46518;48.842;8.926;2023-04-02T11:12:20;0.90;;;0.70;;
1400;SDS011;46518;48.842;8.926;2023-04-02T11:14:53;1.10;;;0.70;;
1400;SDS011;46518;48.842;8.926;2023-04-02T11:17:23;0.70;;;0.60;;
1400;SDS011;46518;48.842;8.926;2023-04-02T11:19:52;0.70;;;0.60;;
1400;SDS011;46518;48.842;8.926;2023-04-02T11:22:22;0.70;;;0.60;;
1400;SDS011;46518;48.842;8.926;2023-04-02T11:24:51;0.60;;;0.60;;
1400;SDS011;46518;48.842;8.926;2023-04-02T11:27:23;0.60;;;0.60;;
1400;SDS011;46518;48.842;8.926;2023-04-02T11:29:56;0.70;;;0.65;;
1400;SDS011;46518;48.842;8.926;2023-04-02T11:32:35;0.60;;;0.57;;
1400;SDS011;46518;48.842;8.926;2023-04-02T11:37:55;0.90;;;0.70;;
1400;SDS011;46518;48.842;8.926;2023-04-02T11:40:47;0.80;;;0.80;;
1400;SDS011;46518;48.842;8.926;2023-04-02T11:46:40;0.60;;;0.60;;
1400;SDS011;46518;48.842;8.926;2023-04-02T11:52:17;1.63;;;1.00;;
1400;SDS011;46518;48.842;8.926;2023-04-02T11:54:57;0.70;;;0.55;;
1400;SDS011;46518;48.842;8.926;2023-04-02T11:57:32;0.85;;;0.75;;
1400;SDS011;46518;48.842;8.926;2023-04-02T12:03:29;0.95;;;0.75;;
1400;SDS011;46518;48.842;8.926;2023-04-02T12:06:10;0.85;;;0.80;;
1400;SDS011;46518;48.842;8.926;2023-04-02T12:08:48;0.80;;;0.70;;
1400;SDS011;46518;48.842;8.926;2023-04-02T12:11:31;0.80;;;0.80;;
1400;SDS011;46518;48.842;8.926;2023-04-02T12:14:06;0.90;;;0.70;;
1400;SDS011;46518;48.842;8.926;2023-04-02T12:16:54;0.77;;;0.73;;
1400;SDS011;46518;48.842;8.926;2023-04-02T12:19:25;0.90;;;0.90;;
1400;SDS011;46518;48.842;8.926;2023-04-02T12:21:56;1.50;;;0.73;;
1400;SDS011;46518;48.842;8.926;2023-04-02T12:24:26;1.15;;;0.80;;
1400;SDS011;46518;48.842;8.926;2023-04-02T12:27:05;1.05;;;0.90;;
1400;SDS011;46518;48.842;8.926;2023-04-02T12:29:41;1.05;;;0.90;;
1400;SDS011;46518;48.842;8.926;2023-04-02T12:32:15;0.80;;;0.80;;
1400;SDS011;46518;48.842;8.926;2023-04-02T12:34:49;0.80;;;0.80;;
1400;SDS011;46518;48.842;8.926;2023-04-02T12:37:19;0.80;;;0.80;;
1400;SDS011;46518;48.842;8.926;2023-04-02T12:39:52;0.80;;;0.80;;
1400;SDS011;46518;48.842;8.926;2023-04-02T12:45:00;1.58;;;1.48;;
1400;SDS011;46518;48.842;8.926;2023-04-02T12:47:30;1.38;;;1.20;;
1400;SDS011;46518;48.842;8.926;2023-04-02T12:50:01;1.17;;;1.08;;
1400;SDS011;46518;48.842;8.926;2023-04-02T12:52:31;1.50;;;1.27;;
1400;SDS011;46518;48.842;8.926;2023-04-02T12:55:00;1.30;;;1.00;;
1400;SDS011;46518;48.842;8.926;2023-04-02T12:57:33;1.33;;;1.17;;
1400;SDS011;46518;48.842;8.926;2023-04-02T13:00:28;1.10;;;1.00;;
1400;SDS011;46518;48.842;8.926;2023-04-02T13:03:00;1.10;;;1.00;;
1400;SDS011;46518;48.842;8.926;2023-04-02T13:05:45;1.38;;;1.27;;
1400;SDS011;46518;48.842;8.926;2023-04-02T13:08:17;1.40;;;1.30;;
1400;SDS011;46518;48.842;8.926;2023-04-02T13:10:54;1.20;;;1.10;;
1400;SDS011;46518;48.842;8.926;2023-04-02T13:13:26;1.20;;;1.10;;
1400;SDS011;46518;48.842;8.926;2023-04-02T13:16:18;1.30;;;1.20;;
1400;SDS011;46518;48.842;8.926;2023-04-02T13:22:03;5.43;;;2.20;;
1400;SDS011;46518;48.842;8.926;2023-04-02T13:24:58;2.95;;;2.75;;
1400;SDS011;46518;48.842;8.926;2023-04-02T13:27:28;3.20;;;3.00;;
1400;SDS011;46518;48.842;8.926;2023-04-02T13:30:05;3.58;;;3.28;;
1400;SDS011;46518;48.842;8.926;2023-04-02T13:32:35;3.13;;;2.90;;
1400;SDS011;46518;48.842;8.926;2023-04-02T13:35:04;2.97;;;2.78;;
1400;SDS011;46518;48.842;8.926;2023-04-02T13:37:35;3.85;;;3.25;;
1400;SDS011;46518;48.842;8.926;2023-04-02T13:40:03;2.50;;;2.30;;
1400;SDS011;46518;48.842;8.926;2023-04-02T13:42:34;2.85;;;2.65;;
1400;SDS011;46518;48.842;8.926;2023-04-02T13:45:18;3.22;;;2.70;;
1400;SDS011;46518;48.842;8.926;2023-04-02T13:47:50;2.58;;;2.38;;
1400;SDS011;46518;48.842;8.926;2023-04-02T13:50:19;3.33;;;3.00;;
1400;SDS011;46518;48.842;8.926;2023-04-02T13:52:50;2.60;;;2.20;;
1400;SDS011;46518;48.842;8.926;2023-04-02T13:55:20;2.65;;;2.45;;
1400;SDS011;46518;48.842;8.926;2023-04-02T13:57:52;2.35;;;2.15;;
1400;SDS011;46518;48.842;8.926;2023-04-02T14:00:21;2.63;;;2.42;;
1400;SDS011;46518;48.842;8.926;2023-04-02T14:02:50;2.30;;;2.10;;
1400;SDS011;46518;48.842;8.926;2023-04-02T14:05:30;2.40;;;2.20;;
1400;SDS011;46518;48.842;8.926;2023-04-02T14:08:07;2.13;;;1.92;;
1400;SDS011;46518;48.842;8.926;2023-04-02T14:10:42;2.05;;;1.95;;
1400;SDS011;46518;48.842;8.926;2023-04-02T14:13:27;2.13;;;1.92;;
1400;SDS011;46518;48.842;8.926;2023-04-02T14:19:14;3.25;;;3.05;;
1400;SDS011;46518;48.842;8.926;2023-04-02T14:21:56;3.47;;;3.17;;
1400;SDS011;46518;48.842;8.926;2023-04-02T14:24:39;2.22;;;2.05;;
1400;SDS011;46518;48.842;8.926;2023-04-02T14:27:20;2.30;;;2.08;;
1400;SDS011;46518;48.842;8.926;2023-04-02T14:29:57;2.20;;;2.00;;
1400;SDS011;46518;48.842;8.926;2023-04-02T14:32:33;2.20;;;2.08;;
1400;SDS011;46518;48.842;8.926;2023-04-02T14:35:12;1.90;;;1.80;;
1400;SDS011;46518;48.842;8.926;2023-04-02T14:37:49;2.58;;;2.38;;
1400;SDS011;46518;48.842;8.926;2023-04-02T14:40:24;2.67;;;2.15;;
1400;SDS011;46518;48.842;8.926;2023-04-02T14:42:58;2.95;;;2.33;;
1400;SDS011;46518;48.842;8.926;2023-04-02T14:45:34;3.22;;;3.03;;
1400;SDS011;46518;48.842;8.926;2023-04-02T14:48:18;2.10;;;2.00;;
1400;SDS011;46518;48.842;8.926;2023-04-02T14:50:55;2.25;;;2.05;;
1400;SDS011;46518;48.842;8.926;2023-04-02T14:53:29;2.78;;;2.58;;
1400;SDS011;46518;48.842;8.926;2023-04-02T14:56:04;2.08;;;1.98;;
1400;SDS011;46518;48.842;8.926;2023-04-02T14:58:36;2.70;;;2.58;;
1400;SDS011;46518;48.842;8.926;2023-04-02T15:01:09;2.50;;;2.40;;
1400;SDS011;46518;48.842;8.926;2023-04-02T15:03:43;3.28;;;2.97;;
1400;SDS011;46518;48.842;8.926;2023-04-02T15:06:17;2.92;;;2.70;;
1400;SDS011;46518;48.842;8.926;2023-04-02T15:08:51;3.33;;;3.03;;
1400;SDS011;46518;48.842;8.926;2023-04-02T15:11:37;3.25;;;2.90;;
1400;SDS011;46518;48.842;8.926;2023-04-02T15:14:10;3.17;;;2.97;;
1400;SDS011;46518;48.842;8.926;2023-04-02T15:16:44;3.58;;;3.13;;
1400;SDS011;46518;48.842;8.926;2023-04-02T15:19:14;4.60;;;4.20;;
1400;SDS011;46518;48.842;8.926;2023-04-02T15:21:51;5.60;;;4.40;;
1400;SDS011;46518;48.842;8.926;2023-04-02T15:24:36;20.02;;;15.52;;
1400;SDS011;46518;48.842;8.926;2023-04-02T15:27:20;4.22;;;3.83;;
1400;SDS011;46518;48.842;8.926;2023-04-02T15:30:02;4.03;;;3.72;;
1400;SDS011;46518;48.842;8.926;2023-04-02T15:32:37;4.00;;;3.67;;
1400;SDS011;46518;48.842;8.926;2023-04-02T15:35:21;3.47;;;3.17;;
1400;SDS011;46518;48.842;8.926;2023-04-02T15:38:04;4.70;;;4.13;;
1400;SDS011;46518;48.842;8.926;2023-04-02T15:40:43;4.10;;;3.47;;
1400;SDS011;46518;48.842;8.926;2023-04-02T15:43:21;3.40;;;3.10;;
1400;SDS011;46518;48.842;8.926;2023-04-02T15:45:59;3.15;;;2.95;;
1400;SDS011;46518;48.842;8.926;2023-04-02T15:48:50;3.00;;;2.80;;
1400;SDS011;46518;48.842;8.926;2023-04-02T15:51:34;3.33;;;3.03;;
1400;SDS011;46518;48.842;8.926;2023-04-02T15:54:14;3.25;;;3.05;;
1400;SDS011;46518;48.842;8.926;2023-04-02T15:56:56;3.53;;;3.22;;
1400;SDS011;46518;48.842;8.926;2023-04-02T15:59:45;3.10;;;2.90;;
1400;SDS011;46518;48.842;8.926;2023-04-02T16:02:52;4.47;;;4.15;;
1400;SDS011;46518;48.842;8.926;2023-04-02T16:05:35;3.30;;;3.00;;
1400;SDS011;46518;48.842;8.926;2023-04-02T16:08:10;6.50;;;4.97;;
1400;SDS011;46518;48.842;8.926;2023-04-02T16:10:52;4.18;;;3.80;;
1400;SDS011;46518;48.842;8.926;2023-04-02T16:13:25;4.13;;;3.83;;
1400;SDS011;46518;48.842;8.926;2023-04-02T16:16:00;3.47;;;3.17;;
1400;SDS011;46518;48.842;8.926;2023-04-02T16:18:40;2.90;;;2.70;;